Flight Track Log - Related Links

Times and Time Zones

All times are in EDT time to prevent confusion due to time zone crossing. See the SWA1718 flight status page for this flight to view local times or setup timezone preferences in your user account.

Time Position Orientation Groundspeed Altitude Reporting Facility
EDT Latitude Longitude Course Direction KTS MPH feet Rate Location/Type
Mon 10:16:29 PM 41.8169 -87.5814 63° Northeast 235 270 5,900  Level Chicago Center
Mon 10:17:30 PM 41.8253 -87.4553 85° East 282 325 9,300 2,585 Climbing Chicago Center
Mon 10:18:32 PM 41.8217 -87.3339 92° East 327 376 11,200 2,244 Climbing Chicago Center
Mon 10:19:33 PM 41.8319 -87.1989 84° East 361 415 13,900 2,488 Climbing Chicago Center
Mon 10:20:35 PM 41.8417 -87.0567 85° East 382 440 16,300 2,293 Climbing Chicago Center
Mon 10:21:36 PM 41.8511 -86.9106 85° East 394 453 18,600 2,049 Climbing Chicago Center
Mon 10:22:38 PM 41.8611 -86.7581 85° East 411 473 20,500 2,049 Climbing Chicago Center
Mon 10:23:39 PM 41.8731 -86.5794 85° East 421 484 22,800 1,512 Climbing Chicago Center
Mon 10:24:41 PM 41.8828 -86.4178 85° East 433 498 23,600 1,171 Climbing Chicago Center
Mon 10:25:42 PM 41.8936 -86.2586 85° East 431 496 25,200 1,463 Climbing Chicago Center
Mon 10:26:44 PM 41.9031 -86.0922 86° East 446 513 26,600 1,512 Climbing Chicago Center
Mon 10:27:45 PM 41.9133 -85.9217 85° East 457 526 28,300 1,561 Climbing Chicago Center
Mon 10:28:47 PM 41.9228 -85.7514 86° East 457 526 29,800 1,610 Climbing Chicago Center
Mon 10:29:48 PM 41.9322 -85.5769 86° East 463 533 31,600 1,610 Climbing Chicago Center
Mon 10:30:50 PM 41.9414 -85.4092 86° East 453 521 33,100 1,101 Climbing Chicago Center
Mon 10:31:37 PM 41.9517 -85.2744 84° East 461 531 33,600 1,065 Climbing Cleveland Center
Mon 10:32:37 PM 41.9542 -85.1042 89° East 461 531 35,000 700 Climbing Cleveland Center
Mon 10:33:37 PM 41.9525 -84.9364 91° East 461 531 35,000  Level Cleveland Center
Mon 10:34:37 PM 41.9503 -84.7689 91° East 461 531 35,000  Level Cleveland Center
Mon 10:35:37 PM 41.9461 -84.5925 92° East 450 518 35,000  Level Cleveland Center
Mon 10:36:37 PM 41.9478 -84.4250 89° East 445 512 35,000  Level Cleveland Center
Mon 10:37:37 PM 41.9500 -84.2939 89° East 445 512 35,000  Level Cleveland Center
Mon 10:38:37 PM 41.9417 -84.0897 93° East 445 512 35,000  Level Cleveland Center
Mon 10:39:37 PM 41.9383 -83.9247 92° East 445 512 35,000  Level Cleveland Center
Mon 10:40:37 PM 41.9369 -83.7569 91° East 445 512 35,000  Level Cleveland Center
Mon 10:41:37 PM 41.9331 -83.5867 92° East 445 512 35,000 -200 Level Cleveland Center
Mon 10:42:37 PM 41.9328 -83.4358 90° East 452 520 34,600 -600 Descending Cleveland Center
Mon 10:43:37 PM 41.9328 -83.2656 90° East 452 520 33,800 -800 Descending Cleveland Center
Mon 10:44:37 PM 41.9306 -83.0839 91° East 452 520 33,000 -400 Descending Cleveland Center
Mon 10:45:37 PM 41.9300 -82.9192 90° East 442 509 33,000 -750 Level Cleveland Center
Mon 10:46:37 PM 41.9289 -82.7544 90° East 442 509 31,500 -1,600 Descending Cleveland Center
Mon 10:47:37 PM 41.9547 -82.5936 78° East 442 509 29,800 -1,650 Descending Cleveland Center
Mon 10:48:37 PM 41.9825 -82.4322 77° East 442 509 28,200 -1,400 Descending Cleveland Center
Mon 10:49:37 PM 42.0122 -82.2711 76° East 442 509 27,000 -600 Descending Cleveland Center
Mon 10:50:37 PM 42.0394 -82.1125 77° East 447 514 27,000  Level Cleveland Center
Mon 10:51:37 PM 42.0664 -81.9536 77° East 442 509 27,000  Level Cleveland Center
Mon 10:52:37 PM 42.0953 -81.7919 76° East 436 502 27,000  Level Cleveland Center
Mon 10:53:37 PM 42.1219 -81.6331 77° East 436 502 27,000  Level Cleveland Center
Mon 10:54:37 PM 42.1483 -81.4736 77° East 430 495 27,000  Level Cleveland Center
Mon 10:55:37 PM 42.1722 -81.3311 77° East 435 501 27,000  Level Cleveland Center
Mon 10:56:37 PM 42.1981 -81.1717 78° East 430 495 27,000  Level Cleveland Center
Mon 10:57:37 PM 42.2239 -81.0067 78° East 435 501 27,000  Level Cleveland Center
Mon 10:58:37 PM 42.2639 -80.8525 71° East 429 494 27,000  Level Cleveland Center
Mon 10:59:37 PM 42.3122 -80.7011 67° East 439 505 27,000  Level Cleveland Center
Mon 11:00:37 PM 42.3644 -80.5494 65° Northeast 439 505 27,000 -200 Level Cleveland Center
Mon 11:01:37 PM 42.4183 -80.3806 67° East 439 505 26,600 -1,200 Descending Cleveland Center
Mon 11:02:37 PM 42.4658 -80.2369 66° East 428 493 24,600 -2,100 Descending Cleveland Center
Mon 11:03:37 PM 42.5114 -80.0958 66° East 418 481 22,400 -1,800 Descending Cleveland Center
Mon 11:04:37 PM 42.5464 -79.9942 65° Northeast 389 448 21,000 -1,800 Descending Cleveland Center
Mon 11:05:37 PM 42.5933 -79.8528 66° East 377 434 18,800 -2,050 Descending Cleveland Center
Mon 11:06:37 PM 42.6300 -79.7339 67° East 361 415 16,900 -2,150 Descending Cleveland Center
Mon 11:07:37 PM 42.6686 -79.6089 67° East 355 409 14,500 -2,400 Descending Cleveland Center
Mon 11:08:37 PM 42.7053 -79.4897 67° East 348 400 12,100 -2,250 Descending Cleveland Center
Mon 11:09:37 PM 42.7456 -79.3592 67° East 343 395 10,000 -1,500 Descending Cleveland Center
Mon 11:10:37 PM 42.7797 -79.2567 66° East 316 364 9,100 -1,200 Descending Cleveland Center
Mon 11:11:37 PM 42.8058 -79.1711 67° East 278 320 7,600 -1,550 Descending Cleveland Center
Mon 11:12:37 PM 42.8358 -79.0742 67° East 278 320 6,000 -1,250 Descending Cleveland Center
Mon 11:13:37 PM 42.8700 -78.9686 66° East 278 320 5,100 -500 Descending Cleveland Center
Mon 11:14:37 PM 42.9253 -78.8961 44° Northeast 278 320 5,000 -76 Descending Cleveland Center
Mon 11:14:56 PM 42.9333 -78.8667 70° East 265 305 5,000  Level Buffalo TRACON
Mon 11:15:56 PM 43.0000 -78.8167 29° Northeast 232 267 5,000 -450 Level Buffalo TRACON
Mon 11:16:56 PM 43.0333 -78.7667 48° Northeast 164 189 4,100 -1,250 Descending Buffalo TRACON
Mon 11:17:56 PM 43.0167 -78.7167 114° Southeast 127 146 2,500 -1,263 Descending Buffalo TRACON
Mon 11:18:50 PM 42.9833 -78.6833 144° Southeast 114 131 1,700 -737 Descending Buffalo TRACON
Mon 11:19:50 PM 42.9667 -78.7000 216° Southwest 125 144 1,100 -600 Descending Buffalo TRACON

Login

Don't have an account? Register now (free) for customized features, flight alerts, and more!